Time;durP1;ratioP1;P1;durP2;ratioP2;P2;SDS_P1;SDS_P2;PMS_P1;PMS_P2;Temp;Humidity;BMP_temperature;BMP_pressure;BME280_temperature;BME280_humidity;BME280_pressure;Samples;Min_cycle;Max_cycle;Signal;HPM_P1;HPM_P2
2023/03/28 00:00:48;;;;;;;;;;;9.50;90.90;;;;;;5046006;28;19995;-74
2023/03/28 00:03:17;;;;;;;;;;;9.60;91.00;;;;;;5047046;28;20031;-75
2023/03/28 00:05:50;;;;;;;;;;;9.50;91.00;;;;;;5046096;28;20249;-75
2023/03/28 00:08:16;;;;;;;;;;;9.50;91.00;;;;;;5047303;28;19908;-76
2023/03/28 00:10:42;;;;;;;;;;;9.50;91.00;;;;;;5047309;28;20076;-74
2023/03/28 00:13:08;;;;;;;;;;;9.50;91.00;;;;;;5046030;28;19908;-75
2023/03/28 00:15:36;;;;;;;;;;;9.60;91.00;;;;;;5045975;28;19908;-77
2023/03/28 00:18:04;;;;;;;;;;;9.60;91.00;;;;;;5047650;28;19924;-75
2023/03/28 00:20:30;;;;;;;;;;;9.70;91.00;;;;;;5049444;28;19966;-74
2023/03/28 00:22:56;;;;;;;;;;;9.70;91.00;;;;;;5050778;28;19904;-75
2023/03/28 00:25:22;;;;;;;;;;;9.70;90.90;;;;;;5050632;28;20012;-75
2023/03/28 00:27:48;;;;;;;;;;;9.70;90.90;;;;;;5049553;28;19916;-76
2023/03/28 00:30:13;;;;;;;;;;;9.80;91.00;;;;;;5050709;28;20267;-76
2023/03/28 00:32:39;;;;;;;;;;;9.80;90.90;;;;;;5050507;28;19967;-76
2023/03/28 00:35:05;;;;;;;;;;;9.80;91.00;;;;;;5049275;28;19909;-76
2023/03/28 00:37:30;;;;;;;;;;;9.80;91.00;;;;;;5050533;28;19916;-76
2023/03/28 00:39:58;;;;;;;;;;;9.90;91.00;;;;;;5050568;28;19909;-76
2023/03/28 00:42:24;;;;;;;;;;;9.90;91.00;;;;;;5050429;28;20009;-75
2023/03/28 00:44:56;;;;;;;;;;;9.90;91.00;;;;;;5049180;28;20304;-75
2023/03/28 00:47:32;;;;;;;;;;;10.00;91.00;;;;;;5049117;28;19913;-75
2023/03/28 00:50:27;;;;;;;;;;;10.00;91.00;;;;;;5048951;28;20284;-75
2023/03/28 00:53:00;;;;;;;;;;;10.10;91.00;;;;;;5049526;28;20285;-75
2023/03/28 00:55:33;;;;;;;;;;;10.10;91.00;;;;;;5048815;28;20284;-75
2023/03/28 00:57:59;;;;;;;;;;;10.10;91.00;;;;;;5050084;28;19908;-75
2023/03/28 01:00:25;;;;;;;;;;;10.20;91.10;;;;;;5050058;28;20384;-75
2023/03/28 01:02:53;;;;;;;;;;;10.20;91.00;;;;;;5048423;28;19930;-75
2023/03/28 01:05:22;;;;;;;;;;;10.20;91.10;;;;;;5048664;28;20380;-75
2023/03/28 01:07:50;;;;;;;;;;;10.20;91.10;;;;;;5050062;28;19927;-76
2023/03/28 01:10:16;;;;;;;;;;;10.30;91.10;;;;;;5049890;28;20365;-75
2023/03/28 01:12:42;;;;;;;;;;;10.40;91.10;;;;;;5048502;28;19916;-75
2023/03/28 01:15:08;;;;;;;;;;;10.30;91.00;;;;;;5048496;28;19913;-75
2023/03/28 01:17:34;;;;;;;;;;;10.40;91.10;;;;;;5049655;28;19913;-76
2023/03/28 01:20:12;;;;;;;;;;;10.40;91.10;;;;;;5049744;28;19962;-75
2023/03/28 01:22:38;;;;;;;;;;;10.40;91.10;;;;;;5048248;28;19912;-75
2023/03/28 01:25:06;;;;;;;;;;;10.40;91.10;;;;;;5049505;28;19951;-74
2023/03/28 01:27:31;;;;;;;;;;;10.30;91.00;;;;;;5048229;28;19971;-74
2023/03/28 01:30:16;;;;;;;;;;;10.30;91.00;;;;;;5049273;28;19908;-76
2023/03/28 01:33:02;;;;;;;;;;;10.20;91.00;;;;;;5049375;28;19905;-75
2023/03/28 01:35:27;;;;;;;;;;;10.20;91.00;;;;;;5049496;28;19936;-75
2023/03/28 01:38:00;;;;;;;;;;;10.10;91.00;;;;;;5049300;28;19948;-75
2023/03/28 01:40:38;;;;;;;;;;;10.10;91.00;;;;;;5048179;28;19911;-75
2023/03/28 01:43:04;;;;;;;;;;;10.00;91.00;;;;;;5047878;28;19911;-75
2023/03/28 01:45:29;;;;;;;;;;;9.90;91.00;;;;;;5049334;28;19905;-75
2023/03/28 01:47:55;;;;;;;;;;;9.90;91.00;;;;;;5049145;28;19909;-76
2023/03/28 01:50:47;;;;;;;;;;;9.80;91.00;;;;;;5049110;28;20140;-75
2023/03/28 01:53:28;;;;;;;;;;;9.80;91.00;;;;;;5049008;28;20357;-76
2023/03/28 01:56:06;;;;;;;;;;;9.70;91.00;;;;;;5047590;28;20372;-75
2023/03/28 01:58:50;;;;;;;;;;;9.70;91.00;;;;;;5048910;28;19912;-75
2023/03/28 02:01:21;;;;;;;;;;;9.70;91.00;;;;;;5048886;28;20269;-75
2023/03/28 02:03:49;;;;;;;;;;;9.70;91.10;;;;;;5047393;28;19967;-75
2023/03/28 02:06:16;;;;;;;;;;;9.70;91.00;;;;;;5048855;28;19917;-76
2023/03/28 02:08:43;;;;;;;;;;;9.60;91.00;;;;;;5048771;28;19909;-76
2023/03/28 02:11:09;;;;;;;;;;;9.50;91.00;;;;;;5047409;28;19995;-76
2023/03/28 02:13:37;;;;;;;;;;;9.50;91.10;;;;;;5048573;28;20337;-76
2023/03/28 02:16:04;;;;;;;;;;;9.40;91.10;;;;;;5047291;28;19927;-75
2023/03/28 02:18:39;;;;;;;;;;;9.40;91.00;;;;;;5048556;28;19935;-75
2023/03/28 02:21:12;;;;;;;;;;;9.30;91.00;;;;;;5048568;28;19904;-75
2023/03/28 02:23:50;;;;;;;;;;;9.20;90.90;;;;;;5048881;28;19905;-75
2023/03/28 02:26:17;;;;;;;;;;;9.10;90.90;;;;;;5048475;28;19950;-75
2023/03/28 02:28:43;;;;;;;;;;;9.00;90.90;;;;;;5048700;28;19913;-75
2023/03/28 02:31:10;;;;;;;;;;;8.90;91.00;;;;;;5048399;28;19905;-76
2023/03/28 02:33:37;;;;;;;;;;;8.90;91.10;;;;;;5047024;28;19960;-75
2023/03/28 02:36:22;;;;;;;;;;;8.80;91.10;;;;;;5048434;28;19908;-75
2023/03/28 02:38:47;;;;;;;;;;;8.90;91.10;;;;;;5048357;28;19919;-75
2023/03/28 02:41:27;;;;;;;;;;;8.90;91.10;;;;;;5048033;28;19905;-75
2023/03/28 02:43:58;;;;;;;;;;;8.90;91.10;;;;;;5048260;28;19908;-75
2023/03/28 02:46:29;;;;;;;;;;;9.00;91.10;;;;;;5046784;28;19912;-75
2023/03/28 02:48:54;;;;;;;;;;;9.00;91.10;;;;;;5048181;28;19904;-75
2023/03/28 02:51:21;;;;;;;;;;;9.10;91.10;;;;;;5048153;28;20092;-75
2023/03/28 02:53:46;;;;;;;;;;;9.10;91.10;;;;;;5048022;28;19977;-75
2023/03/28 02:56:20;;;;;;;;;;;9.10;91.10;;;;;;5048060;28;20357;-75
2023/03/28 02:58:48;;;;;;;;;;;9.20;91.10;;;;;;5048097;28;19915;-75
2023/03/28 03:01:14;;;;;;;;;;;9.30;91.10;;;;;;5047979;28;20003;-75
2023/03/28 03:03:41;;;;;;;;;;;9.30;91.10;;;;;;5046363;28;20378;-75
2023/03/28 03:06:06;;;;;;;;;;;9.40;91.10;;;;;;5047910;28;19913;-75
2023/03/28 03:08:32;;;;;;;;;;;9.40;91.10;;;;;;5046603;28;20307;-76
2023/03/28 03:10:57;;;;;;;;;;;9.40;91.00;;;;;;5047862;28;19915;-75
2023/03/28 03:13:23;;;;;;;;;;;9.40;91.00;;;;;;5046596;28;19915;-76
2023/03/28 03:15:49;;;;;;;;;;;9.50;91.00;;;;;;5047841;28;20376;-75
2023/03/28 03:18:18;;;;;;;;;;;9.50;91.00;;;;;;5047672;28;20055;-75
2023/03/28 03:20:44;;;;;;;;;;;9.50;91.00;;;;;;5047681;28;19908;-75
2023/03/28 03:23:10;;;;;;;;;;;9.50;91.00;;;;;;5047739;28;19904;-75
2023/03/28 03:25:36;;;;;;;;;;;9.50;91.10;;;;;;5047716;28;19991;-75
2023/03/28 03:28:02;;;;;;;;;;;9.50;91.00;;;;;;5047602;28;20016;-75
2023/03/28 03:30:27;;;;;;;;;;;9.50;91.00;;;;;;5047747;28;19947;-75
2023/03/28 03:32:54;;;;;;;;;;;9.50;91.00;;;;;;5029623;28;19908;-75
2023/03/28 03:35:20;;;;;;;;;;;9.50;91.00;;;;;;5046341;28;19908;-75
2023/03/28 03:37:46;;;;;;;;;;;9.50;91.10;;;;;;5046153;28;20019;-75
2023/03/28 03:40:11;;;;;;;;;;;9.50;91.00;;;;;;5047737;28;19970;-75
2023/03/28 03:42:37;;;;;;;;;;;9.50;91.10;;;;;;5047428;28;19991;-76
2023/03/28 03:45:03;;;;;;;;;;;9.50;91.10;;;;;;5046185;28;20331;-75
2023/03/28 03:47:29;;;;;;;;;;;9.50;91.10;;;;;;5046325;28;19916;-76
2023/03/28 03:49:54;;;;;;;;;;;9.50;91.10;;;;;;5047602;28;20353;-75
2023/03/28 03:52:20;;;;;;;;;;;9.40;91.10;;;;;;5046231;28;19909;-76
2023/03/28 03:54:45;;;;;;;;;;;9.50;91.10;;;;;;5049982;28;19962;-75
2023/03/28 03:57:11;;;;;;;;;;;9.50;91.10;;;;;;5050927;28;20331;-75
2023/03/28 03:59:36;;;;;;;;;;;9.40;91.00;;;;;;5051049;28;19913;-76
2023/03/28 04:02:02;;;;;;;;;;;9.40;91.00;;;;;;5050890;28;19913;-75
2023/03/28 04:04:27;;;;;;;;;;;9.30;91.10;;;;;;5051350;28;19990;-75
2023/03/28 04:06:56;;;;;;;;;;;9.30;91.20;;;;;;5050996;28;19947;-75
2023/03/28 04:09:25;;;;;;;;;;;9.30;91.20;;;;;;5050963;28;19920;-75
2023/03/28 04:11:51;;;;;;;;;;;9.30;91.40;;;;;;5051148;28;19932;-75
2023/03/28 04:14:16;;;;;;;;;;;9.30;91.20;;;;;;5051077;28;20344;-75
2023/03/28 04:16:43;;;;;;;;;;;9.30;91.20;;;;;;5051039;28;19916;-75
2023/03/28 04:19:09;;;;;;;;;;;9.30;91.10;;;;;;5050973;28;19904;-75
2023/03/28 04:21:35;;;;;;;;;;;9.30;91.10;;;;;;5050895;28;19995;-75
2023/03/28 04:24:01;;;;;;;;;;;9.20;91.00;;;;;;5050729;28;19992;-76
2023/03/28 04:26:27;;;;;;;;;;;9.20;91.10;;;;;;5050808;28;19916;-76
2023/03/28 04:28:54;;;;;;;;;;;9.10;91.10;;;;;;5050704;28;20349;-76
2023/03/28 04:31:20;;;;;;;;;;;9.00;91.10;;;;;;5050797;28;19955;-76
2023/03/28 04:33:46;;;;;;;;;;;9.00;91.10;;;;;;5050596;28;20357;-76
2023/03/28 04:36:15;;;;;;;;;;;9.00;91.20;;;;;;5050532;28;19928;-76
2023/03/28 04:38:44;;;;;;;;;;;9.00;91.20;;;;;;5050454;28;19913;-76
2023/03/28 04:41:10;;;;;;;;;;;8.90;91.20;;;;;;5050497;28;19944;-76
2023/03/28 04:43:36;;;;;;;;;;;8.90;91.20;;;;;;5050492;28;20000;-77
2023/03/28 04:46:01;;;;;;;;;;;8.90;91.20;;;;;;5050357;28;20433;-76
2023/03/28 04:48:27;;;;;;;;;;;8.80;91.10;;;;;;5050289;28;19966;-77
2023/03/28 04:50:53;;;;;;;;;;;8.80;91.20;;;;;;5050310;28;19970;-76
2023/03/28 04:53:19;;;;;;;;;;;8.80;91.20;;;;;;5032708;28;19909;-75
2023/03/28 04:55:49;;;;;;;;;;;8.80;91.20;;;;;;5050161;28;20411;-75
2023/03/28 04:58:18;;;;;;;;;;;8.90;91.20;;;;;;5048491;28;19908;-75
2023/03/28 05:00:44;;;;;;;;;;;8.90;91.30;;;;;;5050074;28;19920;-75
2023/03/28 05:03:12;;;;;;;;;;;8.90;91.20;;;;;;5049883;28;20351;-77
2023/03/28 05:05:37;;;;;;;;;;;8.90;91.20;;;;;;5049557;28;19927;-77
2023/03/28 05:08:03;;;;;;;;;;;8.90;91.20;;;;;;5048643;28;19912;-75
2023/03/28 05:10:28;;;;;;;;;;;8.90;91.20;;;;;;5048883;28;19917;-75
2023/03/28 05:12:54;;;;;;;;;;;8.90;91.20;;;;;;5049866;28;19912;-76
2023/03/28 05:15:19;;;;;;;;;;;8.90;91.30;;;;;;5049769;28;19912;-75
2023/03/28 05:17:45;;;;;;;;;;;9.00;91.30;;;;;;5048450;28;19998;-75
2023/03/28 05:20:11;;;;;;;;;;;9.00;91.30;;;;;;5049593;28;19921;-74
2023/03/28 05:22:37;;;;;;;;;;;9.00;91.30;;;;;;5048499;28;19912;-76
2023/03/28 05:25:03;;;;;;;;;;;9.00;91.30;;;;;;5049595;28;20286;-75
2023/03/28 05:27:29;;;;;;;;;;;9.00;91.30;;;;;;5049529;28;20357;-76
2023/03/28 05:29:55;;;;;;;;;;;9.10;91.30;;;;;;5049278;28;20213;-76
2023/03/28 05:32:20;;;;;;;;;;;9.10;91.30;;;;;;5049197;28;19905;-75
2023/03/28 05:34:46;;;;;;;;;;;9.20;91.20;;;;;;5049034;28;20419;-75
2023/03/28 05:37:12;;;;;;;;;;;9.20;91.20;;;;;;5049248;28;19917;-75
2023/03/28 05:39:38;;;;;;;;;;;9.30;91.20;;;;;;5049788;28;19955;-75
2023/03/28 05:42:04;;;;;;;;;;;9.30;91.20;;;;;;5049196;28;19909;-75
2023/03/28 05:44:30;;;;;;;;;;;9.40;91.20;;;;;;5049486;28;20360;-75
2023/03/28 05:46:55;;;;;;;;;;;9.40;91.20;;;;;;5048059;28;20007;-75
2023/03/28 05:49:21;;;;;;;;;;;9.50;91.20;;;;;;5048009;28;19916;-75
2023/03/28 05:51:47;;;;;;;;;;;9.50;91.40;;;;;;5049319;28;19904;-75
2023/03/28 05:54:12;;;;;;;;;;;9.60;91.20;;;;;;5048984;28;19912;-75
2023/03/28 05:56:38;;;;;;;;;;;9.60;91.20;;;;;;5048741;28;20380;-75
2023/03/28 05:59:04;;;;;;;;;;;9.70;91.20;;;;;;5047415;28;19913;-75
2023/03/28 06:01:30;;;;;;;;;;;9.70;91.20;;;;;;5048669;28;19908;-75
2023/03/28 06:03:56;;;;;;;;;;;9.80;91.20;;;;;;5048591;28;20405;-75
2023/03/28 06:06:21;;;;;;;;;;;9.80;91.20;;;;;;5048825;28;19955;-75
2023/03/28 06:08:47;;;;;;;;;;;9.80;91.20;;;;;;5048637;28;20017;-76
2023/03/28 06:11:13;;;;;;;;;;;9.80;91.20;;;;;;5047389;28;20057;-76
2023/03/28 06:13:38;;;;;;;;;;;9.80;91.20;;;;;;5048594;28;19912;-76
2023/03/28 06:16:04;;;;;;;;;;;9.80;91.20;;;;;;5046073;28;19915;-76
2023/03/28 06:18:30;;;;;;;;;;;9.70;91.10;;;;;;5048422;28;19912;-76
2023/03/28 06:20:55;;;;;;;;;;;9.70;91.20;;;;;;5048522;28;19911;-76
2023/03/28 06:23:21;;;;;;;;;;;9.60;91.20;;;;;;5048096;28;19915;-75
2023/03/28 06:25:46;;;;;;;;;;;9.60;91.20;;;;;;5048371;28;20361;-75
2023/03/28 06:28:12;;;;;;;;;;;9.50;91.20;;;;;;5047920;28;19985;-76
2023/03/28 06:30:40;;;;;;;;;;;9.50;91.20;;;;;;5048373;28;20279;-76
2023/03/28 06:33:07;;;;;;;;;;;9.50;91.20;;;;;;5046779;28;19916;-76
2023/03/28 06:35:33;;;;;;;;;;;9.50;91.30;;;;;;5048123;28;19909;-76
2023/03/28 06:37:58;;;;;;;;;;;9.50;91.30;;;;;;5048055;28;19934;-76
2023/03/28 06:40:25;;;;;;;;;;;9.50;91.30;;;;;;5046566;28;20011;-76
2023/03/28 06:42:51;;;;;;;;;;;9.50;91.30;;;;;;5048051;28;19913;-76
2023/03/28 06:45:16;;;;;;;;;;;9.60;91.30;;;;;;5048178;28;20350;-76
2023/03/28 06:47:42;;;;;;;;;;;9.60;91.30;;;;;;5048066;28;19958;-76
2023/03/28 06:50:08;;;;;;;;;;;9.70;91.50;;;;;;5046786;28;20323;-76
2023/03/28 06:52:33;;;;;;;;;;;9.70;91.30;;;;;;5047908;28;20003;-76
2023/03/28 06:54:59;;;;;;;;;;;9.80;91.30;;;;;;5047762;28;19963;-76
2023/03/28 06:57:24;;;;;;;;;;;9.80;91.30;;;;;;5047684;28;20277;-75
2023/03/28 06:59:51;;;;;;;;;;;9.90;91.30;;;;;;5046133;28;19913;-76
2023/03/28 07:02:16;;;;;;;;;;;9.90;91.30;;;;;;5047379;28;19925;-76
2023/03/28 07:04:42;;;;;;;;;;;10.00;91.40;;;;;;5047619;28;19908;-75
2023/03/28 07:07:08;;;;;;;;;;;10.00;91.40;;;;;;5047501;28;20403;-68
2023/03/28 07:09:34;;;;;;;;;;;10.10;91.40;;;;;;5047275;28;20356;-76
2023/03/28 07:12:00;;;;;;;;;;;10.10;91.40;;;;;;5047217;28;19905;-76
2023/03/28 07:14:25;;;;;;;;;;;10.20;91.40;;;;;;5047643;28;19932;-76
2023/03/28 07:16:51;;;;;;;;;;;10.30;91.40;;;;;;5046305;28;19967;-76
2023/03/28 07:19:16;;;;;;;;;;;10.30;91.40;;;;;;5047727;28;19905;-76
2023/03/28 07:21:42;;;;;;;;;;;10.40;91.40;;;;;;5046091;28;19925;-76
2023/03/28 07:24:08;;;;;;;;;;;10.40;91.40;;;;;;5047357;28;19922;-76
2023/03/28 07:26:34;;;;;;;;;;;10.50;91.50;;;;;;5048037;28;20253;-76
2023/03/28 07:28:59;;;;;;;;;;;10.50;91.40;;;;;;5051139;28;19913;-76
2023/03/28 07:31:25;;;;;;;;;;;10.60;91.50;;;;;;5052555;28;19948;-75
2023/03/28 07:33:51;;;;;;;;;;;10.60;91.50;;;;;;5052545;28;20003;-75
2023/03/28 07:36:18;;;;;;;;;;;10.70;91.50;;;;;;5052151;28;19997;-76
2023/03/28 07:38:44;;;;;;;;;;;10.70;91.50;;;;;;5050957;28;19958;-76
2023/03/28 07:41:10;;;;;;;;;;;10.80;91.50;;;;;;5052168;28;19913;-75
2023/03/28 07:43:37;;;;;;;;;;;10.80;91.50;;;;;;5052055;28;20003;-76
2023/03/28 07:46:05;;;;;;;;;;;10.80;91.50;;;;;;5052569;28;19912;-75
2023/03/28 07:48:31;;;;;;;;;;;10.80;91.50;;;;;;5051976;28;19948;-76
2023/03/28 07:50:58;;;;;;;;;;;10.90;91.60;;;;;;5051015;28;20275;-72
2023/03/28 07:53:24;;;;;;;;;;;10.90;91.60;;;;;;5050812;28;19916;-74
2023/03/28 07:55:49;;;;;;;;;;;11.00;91.60;;;;;;5051149;28;19905;-77
2023/03/28 07:58:15;;;;;;;;;;;11.10;91.60;;;;;;5050810;28;19919;-76
2023/03/28 08:00:41;;;;;;;;;;;11.10;91.60;;;;;;5050845;28;19904;-75
2023/03/28 08:03:07;;;;;;;;;;;11.10;91.60;;;;;;5050645;28;20521;-76
2023/03/28 08:05:36;;;;;;;;;;;11.20;91.60;;;;;;5050619;28;20020;-76
2023/03/28 08:08:02;;;;;;;;;;;11.20;91.50;;;;;;5050533;28;20013;-76
2023/03/28 08:10:28;;;;;;;;;;;11.20;91.60;;;;;;5050505;28;19905;-76
2023/03/28 08:12:53;;;;;;;;;;;11.30;91.60;;;;;;5051023;28;20396;-76
2023/03/28 08:15:19;;;;;;;;;;;11.40;91.60;;;;;;5050879;28;19913;-76
2023/03/28 08:17:44;;;;;;;;;;;11.50;91.70;;;;;;5050528;28;20604;-76
2023/03/28 08:20:10;;;;;;;;;;;11.70;91.70;;;;;;5049440;28;19909;-76
2023/03/28 08:22:36;;;;;;;;;;;11.70;91.60;;;;;;5049445;28;19908;-76
2023/03/28 08:25:01;;;;;;;;;;;11.80;91.60;;;;;;5048964;28;19944;-76
2023/03/28 08:27:27;;;;;;;;;;;11.80;91.60;;;;;;5050042;28;20369;-76
2023/03/28 08:29:53;;;;;;;;;;;11.80;91.50;;;;;;5033389;28;19909;-76
2023/03/28 08:32:18;;;;;;;;;;;11.80;91.50;;;;;;5051978;28;19919;-77
2023/03/28 08:34:44;;;;;;;;;;;11.80;91.60;;;;;;5051931;28;19951;-76
2023/03/28 08:37:10;;;;;;;;;;;11.90;91.60;;;;;;5051523;28;19935;-77
2023/03/28 08:39:36;;;;;;;;;;;11.90;91.60;;;;;;5050729;28;19916;-77
2023/03/28 08:42:12;;;;;;;;;;;12.00;91.70;;;;;;5051512;28;19909;-77
2023/03/28 08:44:56;;;;;;;;;;;12.10;91.80;;;;;;5051691;28;19905;-77
2023/03/28 08:47:28;;;;;;;;;;;12.20;91.80;;;;;;5051358;28;19995;-76
2023/03/28 08:49:57;;;;;;;;;;;12.30;91.70;;;;;;5052053;28;19913;-77
2023/03/28 08:52:23;;;;;;;;;;;12.20;91.60;;;;;;5051970;28;19932;-76
2023/03/28 08:54:55;;;;;;;;;;;12.30;91.60;;;;;;5050969;28;20345;-76
2023/03/28 08:57:26;;;;;;;;;;;12.30;91.60;;;;;;5050820;28;19908;-77
2023/03/28 09:00:00;;;;;;;;;;;12.20;91.60;;;;;;5049604;28;20266;-75
2023/03/28 09:02:27;;;;;;;;;;;12.20;91.70;;;;;;5041057;28;19963;-75
2023/03/28 09:04:53;;;;;;;;;;;12.30;91.80;;;;;;5032782;28;19913;-75
2023/03/28 09:07:19;;;;;;;;;;;12.50;91.80;;;;;;5032056;28;19959;-76
2023/03/28 09:09:53;;;;;;;;;;;12.60;91.80;;;;;;5030916;28;19913;-76
2023/03/28 09:12:24;;;;;;;;;;;12.90;91.90;;;;;;5035343;28;20794;-74
2023/03/28 09:15:12;;;;;;;;;;;13.10;91.90;;;;;;5032974;28;20253;-75
2023/03/28 09:17:55;;;;;;;;;;;13.10;91.70;;;;;;5038543;28;19913;-75
2023/03/28 09:20:32;;;;;;;;;;;13.20;91.70;;;;;;5034206;28;19905;-75
2023/03/28 09:23:07;;;;;;;;;;;13.30;91.80;;;;;;5031203;28;19909;-76
2023/03/28 09:25:44;;;;;;;;;;;13.40;91.80;;;;;;5031573;28;19959;-75
2023/03/28 09:28:16;;;;;;;;;;;13.40;91.70;;;;;;5030684;28;19995;-76
2023/03/28 09:30:47;;;;;;;;;;;13.40;91.80;;;;;;5029577;28;20430;-77
2023/03/28 09:33:21;;;;;;;;;;;13.50;91.80;;;;;;5030607;28;19909;-76
2023/03/28 09:35:49;;;;;;;;;;;13.60;92.00;;;;;;5038000;28;19909;-75
2023/03/28 09:38:40;;;;;;;;;;;13.80;92.00;;;;;;5044083;28;19916;-76
2023/03/28 09:41:10;;;;;;;;;;;14.00;91.90;;;;;;5046748;28;19915;-74
2023/03/28 09:43:43;;;;;;;;;;;14.20;92.10;;;;;;5045244;28;20007;-75
2023/03/28 09:46:12;;;;;;;;;;;14.50;92.20;;;;;;5037643;28;19905;-75
2023/03/28 09:48:38;;;;;;;;;;;14.80;92.00;;;;;;5038668;28;19912;-75
2023/03/28 09:51:05;;;;;;;;;;;15.00;92.00;;;;;;5044867;28;19905;-76
2023/03/28 09:53:31;;;;;;;;;;;15.20;92.00;;;;;;5037412;28;19905;-76
2023/03/28 09:56:02;;;;;;;;;;;15.20;91.70;;;;;;5046831;28;19908;-77
2023/03/28 09:58:28;;;;;;;;;;;15.10;91.60;;;;;;5045909;28;20276;-73
2023/03/28 10:00:54;;;;;;;;;;;14.90;91.60;;;;;;5040264;28;19974;-74
2023/03/28 10:03:28;;;;;;;;;;;14.70;91.60;;;;;;5040336;28;19921;-76
2023/03/28 10:06:15;;;;;;;;;;;14.50;91.70;;;;;;5032601;28;19950;-75
2023/03/28 10:08:41;;;;;;;;;;;14.50;91.80;;;;;;5029727;28;19905;-75
2023/03/28 10:11:14;;;;;;;;;;;14.40;92.00;;;;;;5029942;28;19916;-75
2023/03/28 10:13:49;;;;;;;;;;;14.70;92.30;;;;;;5028653;28;19944;-75
2023/03/28 10:16:35;;;;;;;;;;;14.90;92.20;;;;;;5035795;28;19909;-74
2023/03/28 10:19:01;;;;;;;;;;;15.00;92.00;;;;;;5048725;28;19909;-74
2023/03/28 10:21:28;;;;;;;;;;;15.00;91.90;;;;;;5048717;28;19908;-75
2023/03/28 10:24:14;;;;;;;;;;;15.00;91.90;;;;;;5043995;28;19916;-74
2023/03/28 10:26:40;;;;;;;;;;;15.00;91.90;;;;;;5037579;28;19916;-76
2023/03/28 10:29:09;;;;;;;;;;;15.10;91.80;;;;;;5040291;28;19909;-75
2023/03/28 10:31:36;;;;;;;;;;;15.10;92.00;;;;;;5037724;28;19915;-74
2023/03/28 10:34:01;;;;;;;;;;;15.50;92.40;;;;;;5046803;28;20280;-74
2023/03/28 10:36:36;;;;;;;;;;;16.20;92.60;;;;;;5040724;28;19915;-77
2023/03/28 10:39:18;;;;;;;;;;;17.10;92.80;;;;;;5040306;28;20354;-71
2023/03/28 10:41:51;;;;;;;;;;;18.30;93.30;;;;;;5037238;28;19909;-76
2023/03/28 10:44:18;;;;;;;;;;;19.60;93.00;;;;;;5040416;28;19992;-76
2023/03/28 10:46:44;;;;;;;;;;;20.40;92.30;;;;;;5037212;28;19909;-74
2023/03/28 10:49:14;;;;;;;;;;;20.40;91.70;;;;;;5037706;28;19916;-74
2023/03/28 10:51:40;;;;;;;;;;;19.80;91.10;;;;;;5040310;28;19908;-76
2023/03/28 10:54:06;;;;;;;;;;;19.10;91.20;;;;;;5040930;28;19912;-74
2023/03/28 10:56:40;;;;;;;;;;;18.60;91.40;;;;;;5035921;28;19916;-73
2023/03/28 10:59:05;;;;;;;;;;;18.00;91.40;;;;;;5040251;28;19909;-73
2023/03/28 11:01:41;;;;;;;;;;;17.50;91.70;;;;;;5039001;28;20529;-75
2023/03/28 11:04:25;;;;;;;;;;;17.10;92.00;;;;;;5037219;28;20407;-75
2023/03/28 11:07:06;;;;;;;;;;;17.10;92.10;;;;;;5045980;28;19955;-75
2023/03/28 11:09:38;;;;;;;;;;;17.10;92.30;;;;;;5048939;28;19912;-73
2023/03/28 11:12:03;;;;;;;;;;;17.20;92.20;;;;;;5048219;28;19999;-74
2023/03/28 11:14:32;;;;;;;;;;;17.30;92.20;;;;;;5048152;28;20036;-74
2023/03/28 11:17:00;;;;;;;;;;;17.50;92.20;;;;;;5048391;28;19913;-75
2023/03/28 11:19:38;;;;;;;;;;;17.60;92.10;;;;;;5048687;28;20315;-75
2023/03/28 11:22:07;;;;;;;;;;;17.40;91.80;;;;;;5048764;28;19952;-75
2023/03/28 11:24:35;;;;;;;;;;;17.20;91.80;;;;;;5048607;28;19995;-73
2023/03/28 11:27:10;;;;;;;;;;;17.10;91.90;;;;;;5048832;28;19909;-76
2023/03/28 11:29:53;;;;;;;;;;;16.90;91.90;;;;;;5048262;28;19909;-76
2023/03/28 11:32:30;;;;;;;;;;;16.90;92.00;;;;;;5047348;28;19909;-76
2023/03/28 11:34:56;;;;;;;;;;;16.90;92.00;;;;;;5048904;28;19948;-74
2023/03/28 11:37:26;;;;;;;;;;;17.00;92.10;;;;;;5048855;28;19948;-74
2023/03/28 11:40:00;;;;;;;;;;;17.20;92.10;;;;;;5049047;28;19958;-76
2023/03/28 11:42:32;;;;;;;;;;;17.30;92.20;;;;;;5048403;28;19960;-75
2023/03/28 11:45:01;;;;;;;;;;;17.30;91.80;;;;;;5048520;28;20387;-75
2023/03/28 11:47:31;;;;;;;;;;;17.20;91.80;;;;;;5048294;28;19908;-75
2023/03/28 11:50:20;;;;;;;;;;;17.10;91.80;;;;;;5046824;28;20000;-74
2023/03/28 11:52:53;;;;;;;;;;;17.10;92.10;;;;;;5048060;28;19912;-77
2023/03/28 11:55:22;;;;;;;;;;;17.40;92.30;;;;;;5048155;28;20310;-76
2023/03/28 11:58:02;;;;;;;;;;;17.90;92.60;;;;;;5047974;28;19991;-75
2023/03/28 12:00:33;;;;;;;;;;;18.20;92.30;;;;;;5048437;28;20371;-77
2023/03/28 12:03:10;;;;;;;;;;;18.10;91.80;;;;;;5048241;28;19971;-76
2023/03/28 12:05:39;;;;;;;;;;;17.90;91.80;;;;;;5048471;28;19996;-77
2023/03/28 12:08:13;;;;;;;;;;;17.80;92.00;;;;;;5048867;28;19905;-77
2023/03/28 12:10:41;;;;;;;;;;;18.10;92.50;;;;;;5047919;28;19938;-70
2023/03/28 12:13:25;;;;;;;;;;;18.50;92.50;;;;;;5047406;28;19928;-74
2023/03/28 12:15:52;;;;;;;;;;;18.80;92.40;;;;;;5050684;28;19905;-75
2023/03/28 12:18:23;;;;;;;;;;;18.80;92.10;;;;;;5051705;28;19919;-74
2023/03/28 12:20:59;;;;;;;;;;;18.70;91.90;;;;;;5053930;28;19996;-75
2023/03/28 12:23:41;;;;;;;;;;;18.50;91.90;;;;;;5056184;28;19950;-75
2023/03/28 12:26:18;;;;;;;;;;;18.40;92.00;;;;;;5060374;28;19995;-77
2023/03/28 12:28:50;;;;;;;;;;;18.30;92.00;;;;;;5059832;28;20017;-74
2023/03/28 12:31:22;;;;;;;;;;;18.30;92.00;;;;;;5053199;28;19908;-75
2023/03/28 12:33:58;;;;;;;;;;;18.10;92.00;;;;;;5057600;28;19999;-75
2023/03/28 12:36:50;;;;;;;;;;;18.10;92.20;;;;;;5052094;28;19916;-74
2023/03/28 12:39:24;;;;;;;;;;;18.20;92.30;;;;;;5050951;28;19925;-74
2023/03/28 12:41:51;;;;;;;;;;;18.40;92.30;;;;;;5049230;28;20309;-74
2023/03/28 12:44:23;;;;;;;;;;;18.60;92.40;;;;;;5050280;28;20276;-75
2023/03/28 12:47:18;;;;;;;;;;;18.70;92.20;;;;;;5051073;28;19905;-75
2023/03/28 12:49:46;;;;;;;;;;;18.80;92.20;;;;;;5049178;28;20462;-76
2023/03/28 12:52:21;;;;;;;;;;;19.00;92.10;;;;;;5050624;28;20533;-76
2023/03/28 12:55:00;;;;;;;;;;;18.90;92.00;;;;;;5051190;28;20046;-76
2023/03/28 12:57:44;;;;;;;;;;;18.60;91.80;;;;;;5051221;28;19912;-74
2023/03/28 13:00:13;;;;;;;;;;;18.40;91.80;;;;;;5051690;28;19905;-74
2023/03/28 13:02:48;;;;;;;;;;;18.20;91.90;;;;;;5050687;28;19952;-76
2023/03/28 13:05:21;;;;;;;;;;;18.00;92.00;;;;;;5050806;28;19905;-75
2023/03/28 13:07:59;;;;;;;;;;;17.90;91.90;;;;;;5051469;28;19916;-74
2023/03/28 13:10:34;;;;;;;;;;;17.70;91.90;;;;;;5051443;28;19904;-76
2023/03/28 13:13:19;;;;;;;;;;;17.50;91.90;;;;;;5050811;28;19911;-76
2023/03/28 13:16:07;;;;;;;;;;;17.30;92.00;;;;;;5051166;28;19911;-76
2023/03/28 13:18:33;;;;;;;;;;;17.30;92.10;;;;;;5039235;28;19908;-76
2023/03/28 13:21:02;;;;;;;;;;;17.40;92.20;;;;;;5050873;28;19963;-77
2023/03/28 13:23:43;;;;;;;;;;;17.60;92.30;;;;;;5051172;28;19983;-75
2023/03/28 13:26:09;;;;;;;;;;;17.90;92.40;;;;;;5050638;28;19964;-75
2023/03/28 13:28:46;;;;;;;;;;;18.00;92.30;;;;;;5050137;28;19917;-76
2023/03/28 13:31:20;;;;;;;;;;;18.20;92.30;;;;;;5050533;28;19978;-76
2023/03/28 13:33:47;;;;;;;;;;;18.30;92.20;;;;;;5044121;28;19909;-76
2023/03/28 13:36:17;;;;;;;;;;;18.50;92.40;;;;;;5049704;28;19944;-76
2023/03/28 13:39:01;;;;;;;;;;;18.80;92.40;;;;;;5049500;28;20260;-75
2023/03/28 13:41:54;;;;;;;;;;;19.10;92.60;;;;;;5049634;28;19913;-76
2023/03/28 13:44:28;;;;;;;;;;;19.60;92.80;;;;;;5048752;28;19939;-76
2023/03/28 13:46:54;;;;;;;;;;;20.00;92.60;;;;;;5049732;28;19912;-76
2023/03/28 13:49:23;;;;;;;;;;;20.00;92.30;;;;;;5050070;28;19908;-76
2023/03/28 13:51:56;;;;;;;;;;;19.80;92.10;;;;;;5049426;28;20341;-73
2023/03/28 13:54:22;;;;;;;;;;;19.60;92.10;;;;;;5049065;28;20012;-73
2023/03/28 13:56:49;;;;;;;;;;;19.50;92.30;;;;;;5047243;28;20356;-73
2023/03/28 13:59:15;;;;;;;;;;;19.60;92.30;;;;;;5049297;28;20553;-76
2023/03/28 14:01:45;;;;;;;;;;;19.70;92.30;;;;;;5049980;28;19905;-77
2023/03/28 14:04:24;;;;;;;;;;;19.70;92.20;;;;;;5048872;28;19939;-76
2023/03/28 14:06:51;;;;;;;;;;;19.70;92.20;;;;;;5049264;28;19919;-72
2023/03/28 14:09:18;;;;;;;;;;;19.50;91.90;;;;;;5049258;28;19920;-78
2023/03/28 14:11:44;;;;;;;;;;;19.30;91.90;;;;;;5049459;28;20261;-76
2023/03/28 14:14:16;;;;;;;;;;;19.10;92.00;;;;;;5049583;28;19909;-77
2023/03/28 14:16:43;;;;;;;;;;;19.00;92.10;;;;;;5042766;28;19955;-75
2023/03/28 14:19:11;;;;;;;;;;;19.00;92.20;;;;;;5037732;28;19966;-77
2023/03/28 14:21:38;;;;;;;;;;;19.00;92.30;;;;;;5037038;28;19905;-76
2023/03/28 14:24:04;;;;;;;;;;;19.00;92.10;;;;;;5035706;28;19909;-72
2023/03/28 14:26:32;;;;;;;;;;;18.90;92.10;;;;;;5035336;28;20356;-76
2023/03/28 14:29:11;;;;;;;;;;;18.90;92.20;;;;;;5037177;28;19905;-77
2023/03/28 14:31:39;;;;;;;;;;;18.80;92.20;;;;;;5044145;28;20050;-78
2023/03/28 14:34:16;;;;;;;;;;;18.80;92.20;;;;;;5049059;28;19912;-78
2023/03/28 14:36:57;;;;;;;;;;;18.80;92.20;;;;;;5049275;28;19909;-78